sensor_id;sensor_type;location;lat;lon;timestamp;P1;durP1;ratioP1;P2;durP2;ratioP2
13741;SDS011;8461;52.356;10.704;2022-07-29T00:01:20;3.30;;;0.93;;
13741;SDS011;8461;52.356;10.704;2022-07-29T00:03:46;6.40;;;1.30;;
13741;SDS011;8461;52.356;10.704;2022-07-29T00:06:12;3.57;;;1.10;;
13741;SDS011;8461;52.356;10.704;2022-07-29T00:08:38;4.33;;;0.90;;
13741;SDS011;8461;52.356;10.704;2022-07-29T00:11:04;2.63;;;1.03;;
13741;SDS011;8461;52.356;10.704;2022-07-29T00:13:30;5.20;;;0.90;;
13741;SDS011;8461;52.356;10.704;2022-07-29T00:15:55;1.90;;;0.90;;
13741;SDS011;8461;52.356;10.704;2022-07-29T00:18:21;2.40;;;1.13;;
13741;SDS011;8461;52.356;10.704;2022-07-29T00:20:46;3.63;;;0.90;;
13741;SDS011;8461;52.356;10.704;2022-07-29T00:23:12;2.13;;;0.90;;
13741;SDS011;8461;52.356;10.704;2022-07-29T00:25:37;4.07;;;1.00;;
13741;SDS011;8461;52.356;10.704;2022-07-29T00:28:03;4.53;;;0.90;;
13741;SDS011;8461;52.356;10.704;2022-07-29T00:30:29;2.53;;;0.90;;
13741;SDS011;8461;52.356;10.704;2022-07-29T00:32:54;6.20;;;0.90;;
13741;SDS011;8461;52.356;10.704;2022-07-29T00:35:20;3.70;;;0.80;;
13741;SDS011;8461;52.356;10.704;2022-07-29T00:38:04;3.93;;;1.40;;
13741;SDS011;8461;52.356;10.704;2022-07-29T00:40:29;3.40;;;0.80;;
13741;SDS011;8461;52.356;10.704;2022-07-29T00:42:55;1.83;;;0.90;;
13741;SDS011;8461;52.356;10.704;2022-07-29T00:45:20;1.43;;;0.90;;
13741;SDS011;8461;52.356;10.704;2022-07-29T00:47:47;4.77;;;1.07;;
13741;SDS011;8461;52.356;10.704;2022-07-29T00:50:13;5.67;;;0.90;;
13741;SDS011;8461;52.356;10.704;2022-07-29T00:52:39;2.50;;;0.90;;
13741;SDS011;8461;52.356;10.704;2022-07-29T00:55:06;2.63;;;0.97;;
13741;SDS011;8461;52.356;10.704;2022-07-29T00:57:34;4.03;;;1.10;;
13741;SDS011;8461;52.356;10.704;2022-07-29T01:00:00;2.10;;;0.80;;
13741;SDS011;8461;52.356;10.704;2022-07-29T01:02:27;2.63;;;1.03;;
13741;SDS011;8461;52.356;10.704;2022-07-29T01:04:53;1.30;;;0.60;;
13741;SDS011;8461;52.356;10.704;2022-07-29T01:07:20;3.40;;;0.80;;
13741;SDS011;8461;52.356;10.704;2022-07-29T01:09:45;6.60;;;1.03;;
13741;SDS011;8461;52.356;10.704;2022-07-29T01:12:19;2.53;;;0.60;;
13741;SDS011;8461;52.356;10.704;2022-07-29T01:14:48;2.53;;;0.90;;
13741;SDS011;8461;52.356;10.704;2022-07-29T01:17:19;4.00;;;1.07;;
13741;SDS011;8461;52.356;10.704;2022-07-29T01:31:04;6.07;;;1.20;;
13741;SDS011;8461;52.356;10.704;2022-07-29T01:33:34;5.03;;;1.03;;
13741;SDS011;8461;52.356;10.704;2022-07-29T01:39:11;3.33;;;1.10;;
13741;SDS011;8461;52.356;10.704;2022-07-29T01:41:59;3.80;;;1.27;;
13741;SDS011;8461;52.356;10.704;2022-07-29T01:45:31;1.77;;;1.10;;
13741;SDS011;8461;52.356;10.704;2022-07-29T01:47:43;4.13;;;1.00;;
13741;SDS011;8461;52.356;10.704;2022-07-29T01:50:14;2.13;;;1.10;;
13741;SDS011;8461;52.356;10.704;2022-07-29T01:52:44;7.57;;;1.10;;
13741;SDS011;8461;52.356;10.704;2022-07-29T01:55:34;5.10;;;1.17;;
13741;SDS011;8461;52.356;10.704;2022-07-29T01:58:09;4.47;;;1.13;;
13741;SDS011;8461;52.356;10.704;2022-07-29T02:00:37;1.93;;;1.00;;
13741;SDS011;8461;52.356;10.704;2022-07-29T02:03:05;2.93;;;1.20;;
13741;SDS011;8461;52.356;10.704;2022-07-29T02:05:34;2.50;;;1.30;;
13741;SDS011;8461;52.356;10.704;2022-07-29T02:08:02;4.37;;;0.87;;
13741;SDS011;8461;52.356;10.704;2022-07-29T02:10:31;2.13;;;0.87;;
13741;SDS011;8461;52.356;10.704;2022-07-29T02:12:59;2.60;;;0.90;;
13741;SDS011;8461;52.356;10.704;2022-07-29T02:15:28;3.37;;;1.37;;
13741;SDS011;8461;52.356;10.704;2022-07-29T02:18:01;2.90;;;1.37;;
13741;SDS011;8461;52.356;10.704;2022-07-29T02:20:43;2.03;;;0.80;;
13741;SDS011;8461;52.356;10.704;2022-07-29T02:23:11;3.60;;;1.03;;
13741;SDS011;8461;52.356;10.704;2022-07-29T02:25:40;2.73;;;0.97;;
13741;SDS011;8461;52.356;10.704;2022-07-29T02:28:07;5.30;;;1.20;;
13741;SDS011;8461;52.356;10.704;2022-07-29T02:30:34;2.97;;;1.13;;
13741;SDS011;8461;52.356;10.704;2022-07-29T02:33:04;2.93;;;1.20;;
13741;SDS011;8461;52.356;10.704;2022-07-29T02:35:31;4.23;;;1.20;;
13741;SDS011;8461;52.356;10.704;2022-07-29T02:37:57;2.40;;;1.13;;
13741;SDS011;8461;52.356;10.704;2022-07-29T02:40:41;3.67;;;1.20;;
13741;SDS011;8461;52.356;10.704;2022-07-29T02:43:08;3.33;;;1.17;;
13741;SDS011;8461;52.356;10.704;2022-07-29T02:45:35;4.20;;;1.23;;
13741;SDS011;8461;52.356;10.704;2022-07-29T02:48:04;3.23;;;1.00;;
13741;SDS011;8461;52.356;10.704;2022-07-29T02:50:37;4.10;;;1.20;;
13741;SDS011;8461;52.356;10.704;2022-07-29T02:53:07;4.70;;;1.27;;
13741;SDS011;8461;52.356;10.704;2022-07-29T02:55:40;3.60;;;1.20;;
13741;SDS011;8461;52.356;10.704;2022-07-29T02:58:13;3.30;;;1.13;;
13741;SDS011;8461;52.356;10.704;2022-07-29T03:00:47;1.93;;;1.10;;
13741;SDS011;8461;52.356;10.704;2022-07-29T03:03:16;7.13;;;1.07;;
13741;SDS011;8461;52.356;10.704;2022-07-29T03:05:43;3.90;;;1.40;;
13741;SDS011;8461;52.356;10.704;2022-07-29T03:08:10;4.53;;;1.00;;
13741;SDS011;8461;52.356;10.704;2022-07-29T03:10:39;3.10;;;1.30;;
13741;SDS011;8461;52.356;10.704;2022-07-29T03:13:09;2.53;;;1.30;;
13741;SDS011;8461;52.356;10.704;2022-07-29T03:15:35;2.53;;;1.43;;
13741;SDS011;8461;52.356;10.704;2022-07-29T03:18:01;3.90;;;1.23;;
13741;SDS011;8461;52.356;10.704;2022-07-29T03:20:27;6.60;;;1.60;;
13741;SDS011;8461;52.356;10.704;2022-07-29T03:22:53;7.37;;;2.50;;
13741;SDS011;8461;52.356;10.704;2022-07-29T03:25:19;4.57;;;1.30;;
13741;SDS011;8461;52.356;10.704;2022-07-29T03:27:45;2.10;;;1.10;;
13741;SDS011;8461;52.356;10.704;2022-07-29T03:30:12;5.13;;;1.53;;
13741;SDS011;8461;52.356;10.704;2022-07-29T03:32:38;2.17;;;1.30;;
13741;SDS011;8461;52.356;10.704;2022-07-29T03:35:04;2.07;;;1.37;;
13741;SDS011;8461;52.356;10.704;2022-07-29T03:37:31;5.57;;;1.30;;
13741;SDS011;8461;52.356;10.704;2022-07-29T03:39:58;4.43;;;1.53;;
13741;SDS011;8461;52.356;10.704;2022-07-29T03:42:25;2.90;;;1.00;;
13741;SDS011;8461;52.356;10.704;2022-07-29T03:44:54;2.67;;;1.57;;
13741;SDS011;8461;52.356;10.704;2022-07-29T03:47:24;4.40;;;1.50;;
13741;SDS011;8461;52.356;10.704;2022-07-29T03:49:53;5.53;;;1.63;;
13741;SDS011;8461;52.356;10.704;2022-07-29T03:52:24;3.80;;;1.70;;
13741;SDS011;8461;52.356;10.704;2022-07-29T03:54:50;4.77;;;1.60;;
13741;SDS011;8461;52.356;10.704;2022-07-29T03:57:16;2.70;;;1.50;;
13741;SDS011;8461;52.356;10.704;2022-07-29T03:59:43;2.97;;;1.23;;
13741;SDS011;8461;52.356;10.704;2022-07-29T04:02:10;7.57;;;1.83;;
13741;SDS011;8461;52.356;10.704;2022-07-29T04:04:37;3.10;;;1.30;;
13741;SDS011;8461;52.356;10.704;2022-07-29T04:07:04;2.07;;;1.30;;
13741;SDS011;8461;52.356;10.704;2022-07-29T04:09:30;3.77;;;1.80;;
13741;SDS011;8461;52.356;10.704;2022-07-29T04:11:55;2.50;;;1.67;;
13741;SDS011;8461;52.356;10.704;2022-07-29T04:14:21;3.93;;;1.53;;
13741;SDS011;8461;52.356;10.704;2022-07-29T04:16:46;3.00;;;1.63;;
13741;SDS011;8461;52.356;10.704;2022-07-29T04:19:12;3.37;;;1.63;;
13741;SDS011;8461;52.356;10.704;2022-07-29T04:21:38;4.23;;;1.73;;
13741;SDS011;8461;52.356;10.704;2022-07-29T04:24:05;4.50;;;1.87;;
13741;SDS011;8461;52.356;10.704;2022-07-29T04:26:31;3.77;;;2.20;;
13741;SDS011;8461;52.356;10.704;2022-07-29T04:28:57;6.33;;;1.77;;
13741;SDS011;8461;52.356;10.704;2022-07-29T04:31:22;6.27;;;1.83;;
13741;SDS011;8461;52.356;10.704;2022-07-29T04:33:48;4.37;;;1.80;;
13741;SDS011;8461;52.356;10.704;2022-07-29T04:36:14;3.17;;;1.63;;
13741;SDS011;8461;52.356;10.704;2022-07-29T04:38:39;4.20;;;1.93;;
13741;SDS011;8461;52.356;10.704;2022-07-29T04:41:05;8.63;;;2.03;;
13741;SDS011;8461;52.356;10.704;2022-07-29T04:43:32;7.60;;;2.07;;
13741;SDS011;8461;52.356;10.704;2022-07-29T04:45:58;5.20;;;1.73;;
13741;SDS011;8461;52.356;10.704;2022-07-29T04:48:24;4.70;;;1.97;;
13741;SDS011;8461;52.356;10.704;2022-07-29T04:50:50;4.10;;;1.90;;
13741;SDS011;8461;52.356;10.704;2022-07-29T04:53:15;7.77;;;2.13;;
13741;SDS011;8461;52.356;10.704;2022-07-29T04:55:41;5.27;;;2.07;;
13741;SDS011;8461;52.356;10.704;2022-07-29T04:58:06;3.20;;;1.87;;
13741;SDS011;8461;52.356;10.704;2022-07-29T05:00:32;4.10;;;1.80;;
13741;SDS011;8461;52.356;10.704;2022-07-29T05:02:58;4.00;;;2.13;;
13741;SDS011;8461;52.356;10.704;2022-07-29T05:05:23;7.80;;;2.00;;
13741;SDS011;8461;52.356;10.704;2022-07-29T05:07:49;4.57;;;1.90;;
13741;SDS011;8461;52.356;10.704;2022-07-29T05:10:14;8.60;;;2.10;;
13741;SDS011;8461;52.356;10.704;2022-07-29T05:12:40;2.97;;;1.83;;
13741;SDS011;8461;52.356;10.704;2022-07-29T05:15:05;5.93;;;1.60;;
13741;SDS011;8461;52.356;10.704;2022-07-29T05:17:31;6.67;;;2.00;;
13741;SDS011;8461;52.356;10.704;2022-07-29T05:19:57;6.40;;;2.20;;
13741;SDS011;8461;52.356;10.704;2022-07-29T05:22:22;3.27;;;2.10;;
13741;SDS011;8461;52.356;10.704;2022-07-29T05:24:48;3.20;;;2.10;;
13741;SDS011;8461;52.356;10.704;2022-07-29T05:27:13;3.13;;;2.13;;
13741;SDS011;8461;52.356;10.704;2022-07-29T05:29:39;6.03;;;2.07;;
13741;SDS011;8461;52.356;10.704;2022-07-29T05:32:05;10.23;;;2.50;;
13741;SDS011;8461;52.356;10.704;2022-07-29T05:34:30;5.27;;;2.30;;
13741;SDS011;8461;52.356;10.704;2022-07-29T05:36:57;4.70;;;1.90;;
13741;SDS011;8461;52.356;10.704;2022-07-29T05:39:23;3.93;;;1.90;;
13741;SDS011;8461;52.356;10.704;2022-07-29T05:41:48;4.13;;;2.03;;
13741;SDS011;8461;52.356;10.704;2022-07-29T05:44:14;9.07;;;2.33;;
13741;SDS011;8461;52.356;10.704;2022-07-29T05:46:40;7.67;;;2.80;;
13741;SDS011;8461;52.356;10.704;2022-07-29T05:49:05;7.33;;;2.47;;
13741;SDS011;8461;52.356;10.704;2022-07-29T05:51:32;6.87;;;2.70;;
13741;SDS011;8461;52.356;10.704;2022-07-29T05:53:58;5.93;;;2.50;;
13741;SDS011;8461;52.356;10.704;2022-07-29T05:56:24;8.30;;;2.57;;
13741;SDS011;8461;52.356;10.704;2022-07-29T05:58:50;3.73;;;2.50;;
13741;SDS011;8461;52.356;10.704;2022-07-29T06:01:15;7.07;;;2.43;;
13741;SDS011;8461;52.356;10.704;2022-07-29T06:03:41;6.17;;;3.03;;
13741;SDS011;8461;52.356;10.704;2022-07-29T06:06:07;5.03;;;2.60;;
13741;SDS011;8461;52.356;10.704;2022-07-29T06:08:33;5.27;;;2.23;;
13741;SDS011;8461;52.356;10.704;2022-07-29T06:11:01;5.90;;;2.47;;
13741;SDS011;8461;52.356;10.704;2022-07-29T06:13:28;4.97;;;2.80;;
13741;SDS011;8461;52.356;10.704;2022-07-29T06:15:54;6.60;;;2.43;;
13741;SDS011;8461;52.356;10.704;2022-07-29T06:18:19;6.33;;;2.50;;
13741;SDS011;8461;52.356;10.704;2022-07-29T06:20:48;6.43;;;3.00;;
13741;SDS011;8461;52.356;10.704;2022-07-29T06:23:14;8.00;;;2.67;;
13741;SDS011;8461;52.356;10.704;2022-07-29T06:25:40;7.37;;;2.67;;
13741;SDS011;8461;52.356;10.704;2022-07-29T06:28:06;7.73;;;3.10;;
13741;SDS011;8461;52.356;10.704;2022-07-29T06:30:32;9.23;;;2.80;;
13741;SDS011;8461;52.356;10.704;2022-07-29T06:32:57;8.73;;;3.07;;
13741;SDS011;8461;52.356;10.704;2022-07-29T06:35:23;3.23;;;2.53;;
13741;SDS011;8461;52.356;10.704;2022-07-29T06:37:49;6.67;;;2.70;;
13741;SDS011;8461;52.356;10.704;2022-07-29T06:40:14;6.93;;;2.93;;
13741;SDS011;8461;52.356;10.704;2022-07-29T06:42:59;5.00;;;2.60;;
13741;SDS011;8461;52.356;10.704;2022-07-29T06:45:24;5.47;;;2.90;;
13741;SDS011;8461;52.356;10.704;2022-07-29T06:47:50;6.13;;;2.90;;
13741;SDS011;8461;52.356;10.704;2022-07-29T06:50:15;5.13;;;2.83;;
13741;SDS011;8461;52.356;10.704;2022-07-29T06:52:41;6.70;;;2.83;;
13741;SDS011;8461;52.356;10.704;2022-07-29T06:55:07;7.80;;;3.10;;
13741;SDS011;8461;52.356;10.704;2022-07-29T06:57:33;6.87;;;3.13;;
13741;SDS011;8461;52.356;10.704;2022-07-29T06:59:59;6.03;;;2.97;;
13741;SDS011;8461;52.356;10.704;2022-07-29T07:02:25;6.20;;;3.20;;
13741;SDS011;8461;52.356;10.704;2022-07-29T07:04:51;4.70;;;2.40;;
13741;SDS011;8461;52.356;10.704;2022-07-29T07:07:16;3.77;;;2.83;;
13741;SDS011;8461;52.356;10.704;2022-07-29T07:09:42;6.47;;;3.07;;
13741;SDS011;8461;52.356;10.704;2022-07-29T07:12:08;7.77;;;3.23;;
13741;SDS011;8461;52.356;10.704;2022-07-29T07:14:33;7.70;;;2.83;;
13741;SDS011;8461;52.356;10.704;2022-07-29T07:16:59;5.80;;;2.80;;
13741;SDS011;8461;52.356;10.704;2022-07-29T07:19:28;3.57;;;2.70;;
13741;SDS011;8461;52.356;10.704;2022-07-29T07:21:54;6.10;;;2.47;;
13741;SDS011;8461;52.356;10.704;2022-07-29T07:24:20;5.60;;;2.50;;
13741;SDS011;8461;52.356;10.704;2022-07-29T07:26:46;5.87;;;2.80;;
13741;SDS011;8461;52.356;10.704;2022-07-29T07:29:11;7.17;;;2.83;;
13741;SDS011;8461;52.356;10.704;2022-07-29T07:31:37;8.33;;;2.60;;
13741;SDS011;8461;52.356;10.704;2022-07-29T07:34:03;6.77;;;3.03;;
13741;SDS011;8461;52.356;10.704;2022-07-29T07:36:29;7.17;;;2.80;;
13741;SDS011;8461;52.356;10.704;2022-07-29T07:38:54;7.37;;;3.13;;
13741;SDS011;8461;52.356;10.704;2022-07-29T07:41:20;6.03;;;2.57;;
13741;SDS011;8461;52.356;10.704;2022-07-29T07:43:46;7.63;;;3.03;;
13741;SDS011;8461;52.356;10.704;2022-07-29T07:46:12;3.50;;;2.60;;
13741;SDS011;8461;52.356;10.704;2022-07-29T07:48:37;5.53;;;3.17;;
13741;SDS011;8461;52.356;10.704;2022-07-29T07:51:03;6.50;;;2.83;;
13741;SDS011;8461;52.356;10.704;2022-07-29T07:53:28;6.60;;;2.97;;
13741;SDS011;8461;52.356;10.704;2022-07-29T07:55:55;5.73;;;2.60;;
13741;SDS011;8461;52.356;10.704;2022-07-29T07:58:20;4.30;;;2.80;;
13741;SDS011;8461;52.356;10.704;2022-07-29T08:00:46;6.63;;;2.93;;
13741;SDS011;8461;52.356;10.704;2022-07-29T08:03:12;3.57;;;2.77;;
13741;SDS011;8461;52.356;10.704;2022-07-29T08:05:38;6.10;;;2.80;;
13741;SDS011;8461;52.356;10.704;2022-07-29T08:08:04;9.70;;;3.00;;
13741;SDS011;8461;52.356;10.704;2022-07-29T08:10:30;10.47;;;3.37;;
13741;SDS011;8461;52.356;10.704;2022-07-29T08:13:14;5.50;;;2.80;;
13741;SDS011;8461;52.356;10.704;2022-07-29T08:15:39;8.17;;;2.87;;
13741;SDS011;8461;52.356;10.704;2022-07-29T08:18:10;6.43;;;2.70;;
13741;SDS011;8461;52.356;10.704;2022-07-29T08:20:36;7.43;;;2.97;;
13741;SDS011;8461;52.356;10.704;2022-07-29T08:23:03;6.63;;;2.70;;
13741;SDS011;8461;52.356;10.704;2022-07-29T08:25:31;13.20;;;3.37;;
13741;SDS011;8461;52.356;10.704;2022-07-29T08:27:57;6.67;;;2.87;;
13741;SDS011;8461;52.356;10.704;2022-07-29T08:30:23;10.30;;;2.80;;
13741;SDS011;8461;52.356;10.704;2022-07-29T08:32:49;6.93;;;2.80;;
13741;SDS011;8461;52.356;10.704;2022-07-29T08:35:17;13.87;;;2.97;;
13741;SDS011;8461;52.356;10.704;2022-07-29T08:37:43;10.30;;;2.70;;
13741;SDS011;8461;52.356;10.704;2022-07-29T08:40:09;6.70;;;2.40;;
13741;SDS011;8461;52.356;10.704;2022-07-29T08:42:35;7.47;;;2.40;;
13741;SDS011;8461;52.356;10.704;2022-07-29T08:45:02;9.80;;;2.83;;
13741;SDS011;8461;52.356;10.704;2022-07-29T08:47:28;5.30;;;2.70;;
13741;SDS011;8461;52.356;10.704;2022-07-29T08:49:54;9.00;;;2.60;;
13741;SDS011;8461;52.356;10.704;2022-07-29T08:52:20;10.87;;;3.30;;
13741;SDS011;8461;52.356;10.704;2022-07-29T08:54:46;4.33;;;2.03;;
13741;SDS011;8461;52.356;10.704;2022-07-29T08:57:13;7.10;;;2.87;;
13741;SDS011;8461;52.356;10.704;2022-07-29T08:59:40;6.03;;;2.43;;
13741;SDS011;8461;52.356;10.704;2022-07-29T09:02:12;5.33;;;2.30;;
13741;SDS011;8461;52.356;10.704;2022-07-29T09:04:44;3.83;;;2.43;;
13741;SDS011;8461;52.356;10.704;2022-07-29T09:07:10;7.83;;;2.83;;
13741;SDS011;8461;52.356;10.704;2022-07-29T09:09:40;5.90;;;2.50;;
13741;SDS011;8461;52.356;10.704;2022-07-29T09:12:06;6.73;;;2.20;;
13741;SDS011;8461;52.356;10.704;2022-07-29T09:14:33;6.33;;;2.53;;
13741;SDS011;8461;52.356;10.704;2022-07-29T09:16:59;7.03;;;2.47;;
13741;SDS011;8461;52.356;10.704;2022-07-29T09:21:53;5.17;;;2.43;;
13741;SDS011;8461;52.356;10.704;2022-07-29T09:24:48;5.73;;;2.47;;
13741;SDS011;8461;52.356;10.704;2022-07-29T09:27:19;5.53;;;2.33;;
13741;SDS011;8461;52.356;10.704;2022-07-29T09:29:47;7.70;;;2.50;;
13741;SDS011;8461;52.356;10.704;2022-07-29T09:32:53;7.43;;;2.20;;
13741;SDS011;8461;52.356;10.704;2022-07-29T09:35:25;6.23;;;2.47;;
13741;SDS011;8461;52.356;10.704;2022-07-29T09:37:51;3.57;;;2.37;;
13741;SDS011;8461;52.356;10.704;2022-07-29T09:40:18;5.63;;;2.40;;
13741;SDS011;8461;52.356;10.704;2022-07-29T09:42:52;5.07;;;2.37;;
13741;SDS011;8461;52.356;10.704;2022-07-29T09:45:31;3.33;;;2.00;;
13741;SDS011;8461;52.356;10.704;2022-07-29T09:47:59;6.13;;;2.30;;
13741;SDS011;8461;52.356;10.704;2022-07-29T09:50:40;2.67;;;2.30;;
13741;SDS011;8461;52.356;10.704;2022-07-29T09:53:07;7.13;;;2.20;;
13741;SDS011;8461;52.356;10.704;2022-07-29T09:55:46;3.50;;;2.00;;
13741;SDS011;8461;52.356;10.704;2022-07-29T09:58:18;3.50;;;2.20;;
13741;SDS011;8461;52.356;10.704;2022-07-29T10:00:45;6.30;;;2.50;;
13741;SDS011;8461;52.356;10.704;2022-07-29T10:03:12;7.33;;;2.13;;
13741;SDS011;8461;52.356;10.704;2022-07-29T10:05:39;4.47;;;2.17;;
13741;SDS011;8461;52.356;10.704;2022-07-29T10:08:05;3.10;;;2.30;;
13741;SDS011;8461;52.356;10.704;2022-07-29T10:10:33;3.60;;;2.20;;
13741;SDS011;8461;52.356;10.704;2022-07-29T10:13:10;5.03;;;2.30;;
13741;SDS011;8461;52.356;10.704;2022-07-29T10:15:38;4.30;;;2.20;;
13741;SDS011;8461;52.356;10.704;2022-07-29T10:18:10;5.57;;;2.40;;
13741;SDS011;8461;52.356;10.704;2022-07-29T10:20:37;6.30;;;1.90;;
13741;SDS011;8461;52.356;10.704;2022-07-29T10:23:03;7.13;;;2.20;;
13741;SDS011;8461;52.356;10.704;2022-07-29T10:25:29;5.73;;;2.07;;
13741;SDS011;8461;52.356;10.704;2022-07-29T10:27:55;3.87;;;2.07;;
13741;SDS011;8461;52.356;10.704;2022-07-29T10:30:22;6.83;;;1.93;;
13741;SDS011;8461;52.356;10.704;2022-07-29T10:46:38;6.03;;;2.07;;
13741;SDS011;8461;52.356;10.704;2022-07-29T10:49:08;5.33;;;2.07;;
13741;SDS011;8461;52.356;10.704;2022-07-29T11:05:17;4.87;;;2.13;;
13741;SDS011;8461;52.356;10.704;2022-07-29T11:10:38;4.07;;;1.77;;
13741;SDS011;8461;52.356;10.704;2022-07-29T11:13:04;6.23;;;2.33;;
13741;SDS011;8461;52.356;10.704;2022-07-29T11:15:29;5.82;;;2.25;;
13741;SDS011;8461;52.356;10.704;2022-07-29T11:18:22;9.25;;;2.13;;
13741;SDS011;8461;52.356;10.704;2022-07-29T11:20:48;4.70;;;2.00;;
13741;SDS011;8461;52.356;10.704;2022-07-29T11:28:54;8.23;;;2.10;;
13741;SDS011;8461;52.356;10.704;2022-07-29T11:31:40;7.60;;;2.22;;
13741;SDS011;8461;52.356;10.704;2022-07-29T11:34:27;6.40;;;2.10;;
13741;SDS011;8461;52.356;10.704;2022-07-29T11:39:34;7.07;;;2.05;;
13741;SDS011;8461;52.356;10.704;2022-07-29T11:42:36;5.65;;;2.25;;
13741;SDS011;8461;52.356;10.704;2022-07-29T11:47:36;5.55;;;1.73;;
13741;SDS011;8461;52.356;10.704;2022-07-29T11:50:06;6.32;;;2.20;;
13741;SDS011;8461;52.356;10.704;2022-07-29T11:52:44;5.15;;;1.83;;
13741;SDS011;8461;52.356;10.704;2022-07-29T11:55:20;9.18;;;2.10;;
13741;SDS011;8461;52.356;10.704;2022-07-29T12:00:21;6.78;;;1.80;;
13741;SDS011;8461;52.356;10.704;2022-07-29T12:02:48;7.30;;;2.10;;
13741;SDS011;8461;52.356;10.704;2022-07-29T12:05:14;4.88;;;1.85;;
13741;SDS011;8461;52.356;10.704;2022-07-29T12:07:40;4.50;;;1.95;;
13741;SDS011;8461;52.356;10.704;2022-07-29T12:10:06;7.97;;;2.13;;
13741;SDS011;8461;52.356;10.704;2022-07-29T12:12:33;8.10;;;1.95;;
13741;SDS011;8461;52.356;10.704;2022-07-29T12:15:15;3.88;;;1.80;;
13741;SDS011;8461;52.356;10.704;2022-07-29T12:17:43;6.57;;;2.20;;
13741;SDS011;8461;52.356;10.704;2022-07-29T12:20:09;3.28;;;1.80;;
13741;SDS011;8461;52.356;10.704;2022-07-29T12:22:36;5.22;;;1.83;;
13741;SDS011;8461;52.356;10.704;2022-07-29T12:25:09;5.70;;;2.10;;
13741;SDS011;8461;52.356;10.704;2022-07-29T12:27:39;6.35;;;2.20;;
13741;SDS011;8461;52.356;10.704;2022-07-29T12:30:10;5.85;;;1.95;;
13741;SDS011;8461;52.356;10.704;2022-07-29T12:32:41;3.97;;;2.17;;
13741;SDS011;8461;52.356;10.704;2022-07-29T12:35:09;5.53;;;1.73;;
13741;SDS011;8461;52.356;10.704;2022-07-29T12:37:42;9.63;;;3.05;;
13741;SDS011;8461;52.356;10.704;2022-07-29T12:40:10;4.28;;;1.80;;
13741;SDS011;8461;52.356;10.704;2022-07-29T12:42:37;4.38;;;1.85;;
13741;SDS011;8461;52.356;10.704;2022-07-29T12:45:04;6.30;;;2.10;;
13741;SDS011;8461;52.356;10.704;2022-07-29T12:47:31;5.00;;;1.88;;
13741;SDS011;8461;52.356;10.704;2022-07-29T12:52:43;6.20;;;1.83;;
13741;SDS011;8461;52.356;10.704;2022-07-29T12:55:09;4.70;;;2.35;;
13741;SDS011;8461;52.356;10.704;2022-07-29T12:57:48;5.35;;;1.98;;
13741;SDS011;8461;52.356;10.704;2022-07-29T13:00:21;5.18;;;2.10;;
13741;SDS011;8461;52.356;10.704;2022-07-29T13:02:58;5.40;;;2.00;;
13741;SDS011;8461;52.356;10.704;2022-07-29T13:05:42;3.83;;;1.58;;
13741;SDS011;8461;52.356;10.704;2022-07-29T13:08:13;4.63;;;2.08;;
13741;SDS011;8461;52.356;10.704;2022-07-29T13:10:40;4.95;;;1.77;;
13741;SDS011;8461;52.356;10.704;2022-07-29T13:13:07;4.95;;;1.70;;
13741;SDS011;8461;52.356;10.704;2022-07-29T13:15:37;6.75;;;2.20;;
13741;SDS011;8461;52.356;10.704;2022-07-29T13:18:05;3.90;;;1.70;;
13741;SDS011;8461;52.356;10.704;2022-07-29T13:20:51;4.20;;;1.73;;
13741;SDS011;8461;52.356;10.704;2022-07-29T13:23:16;3.30;;;1.90;;
13741;SDS011;8461;52.356;10.704;2022-07-29T13:25:42;5.63;;;1.88;;
13741;SDS011;8461;52.356;10.704;2022-07-29T13:28:08;7.70;;;1.52;;
13741;SDS011;8461;52.356;10.704;2022-07-29T13:30:33;3.03;;;1.60;;
13741;SDS011;8461;52.356;10.704;2022-07-29T13:32:59;2.30;;;1.25;;
13741;SDS011;8461;52.356;10.704;2022-07-29T13:35:24;6.35;;;2.00;;
13741;SDS011;8461;52.356;10.704;2022-07-29T13:37:50;5.78;;;1.70;;
13741;SDS011;8461;52.356;10.704;2022-07-29T13:40:16;4.22;;;1.73;;
13741;SDS011;8461;52.356;10.704;2022-07-29T13:42:41;4.05;;;1.67;;
13741;SDS011;8461;52.356;10.704;2022-07-29T13:45:08;4.55;;;1.67;;
13741;SDS011;8461;52.356;10.704;2022-07-29T13:47:35;7.07;;;2.08;;
13741;SDS011;8461;52.356;10.704;2022-07-29T13:50:01;6.22;;;2.17;;
13741;SDS011;8461;52.356;10.704;2022-07-29T13:52:28;4.80;;;1.70;;
13741;SDS011;8461;52.356;10.704;2022-07-29T13:54:54;2.28;;;1.70;;
13741;SDS011;8461;52.356;10.704;2022-07-29T13:57:19;5.43;;;1.85;;
13741;SDS011;8461;52.356;10.704;2022-07-29T13:59:45;6.07;;;1.92;;
13741;SDS011;8461;52.356;10.704;2022-07-29T14:02:11;4.53;;;1.92;;
13741;SDS011;8461;52.356;10.704;2022-07-29T14:04:37;6.22;;;1.92;;
13741;SDS011;8461;52.356;10.704;2022-07-29T14:07:03;4.90;;;1.80;;
13741;SDS011;8461;52.356;10.704;2022-07-29T14:09:28;3.58;;;1.67;;
13741;SDS011;8461;52.356;10.704;2022-07-29T14:11:54;4.03;;;1.80;;
13741;SDS011;8461;52.356;10.704;2022-07-29T14:14:20;2.55;;;1.65;;
13741;SDS011;8461;52.356;10.704;2022-07-29T14:16:45;4.75;;;1.90;;
13741;SDS011;8461;52.356;10.704;2022-07-29T14:19:11;5.28;;;1.80;;
13741;SDS011;8461;52.356;10.704;2022-07-29T14:21:37;6.45;;;2.15;;
13741;SDS011;8461;52.356;10.704;2022-07-29T14:24:04;4.20;;;1.65;;
13741;SDS011;8461;52.356;10.704;2022-07-29T14:26:31;4.30;;;1.90;;
13741;SDS011;8461;52.356;10.704;2022-07-29T14:28:56;6.47;;;2.03;;
13741;SDS011;8461;52.356;10.704;2022-07-29T14:31:22;4.57;;;2.05;;
13741;SDS011;8461;52.356;10.704;2022-07-29T14:33:47;5.45;;;2.10;;
13741;SDS011;8461;52.356;10.704;2022-07-29T14:36:13;7.20;;;2.05;;
13741;SDS011;8461;52.356;10.704;2022-07-29T14:38:39;4.18;;;1.50;;
13741;SDS011;8461;52.356;10.704;2022-07-29T14:41:05;5.80;;;1.63;;
13741;SDS011;8461;52.356;10.704;2022-07-29T14:43:31;5.20;;;1.60;;
13741;SDS011;8461;52.356;10.704;2022-07-29T14:45:57;6.70;;;1.83;;
13741;SDS011;8461;52.356;10.704;2022-07-29T14:48:22;3.97;;;2.10;;
13741;SDS011;8461;52.356;10.704;2022-07-29T14:50:48;7.68;;;1.88;;
13741;SDS011;8461;52.356;10.704;2022-07-29T14:53:13;6.60;;;2.63;;
13741;SDS011;8461;52.356;10.704;2022-07-29T14:55:39;5.57;;;1.92;;
13741;SDS011;8461;52.356;10.704;2022-07-29T14:58:05;6.50;;;2.50;;
13741;SDS011;8461;52.356;10.704;2022-07-29T15:00:31;6.55;;;2.60;;
13741;SDS011;8461;52.356;10.704;2022-07-29T15:02:58;7.60;;;3.00;;
13741;SDS011;8461;52.356;10.704;2022-07-29T15:05:25;5.13;;;2.13;;
13741;SDS011;8461;52.356;10.704;2022-07-29T15:07:51;3.55;;;1.77;;
13741;SDS011;8461;52.356;10.704;2022-07-29T15:10:16;5.22;;;2.00;;
13741;SDS011;8461;52.356;10.704;2022-07-29T15:12:42;2.60;;;1.60;;
13741;SDS011;8461;52.356;10.704;2022-07-29T15:15:07;5.88;;;1.77;;
13741;SDS011;8461;52.356;10.704;2022-07-29T15:17:33;3.67;;;1.70;;
13741;SDS011;8461;52.356;10.704;2022-07-29T15:19:59;3.28;;;1.63;;
13741;SDS011;8461;52.356;10.704;2022-07-29T15:22:25;5.03;;;1.73;;
13741;SDS011;8461;52.356;10.704;2022-07-29T15:24:50;3.00;;;1.48;;
13741;SDS011;8461;52.356;10.704;2022-07-29T15:27:16;4.13;;;1.80;;
13741;SDS011;8461;52.356;10.704;2022-07-29T15:29:42;3.97;;;1.50;;
13741;SDS011;8461;52.356;10.704;2022-07-29T15:32:08;2.65;;;1.60;;
13741;SDS011;8461;52.356;10.704;2022-07-29T15:34:34;2.72;;;1.48;;
13741;SDS011;8461;52.356;10.704;2022-07-29T15:37:01;5.78;;;1.70;;
13741;SDS011;8461;52.356;10.704;2022-07-29T15:39:27;4.13;;;1.45;;
13741;SDS011;8461;52.356;10.704;2022-07-29T15:41:52;4.88;;;1.92;;
13741;SDS011;8461;52.356;10.704;2022-07-29T15:44:18;3.17;;;2.00;;
13741;SDS011;8461;52.356;10.704;2022-07-29T15:46:44;5.05;;;1.80;;
13741;SDS011;8461;52.356;10.704;2022-07-29T15:49:32;5.32;;;1.58;;
13741;SDS011;8461;52.356;10.704;2022-07-29T15:51:59;4.00;;;1.83;;
13741;SDS011;8461;52.356;10.704;2022-07-29T15:54:27;6.20;;;1.77;;
13741;SDS011;8461;52.356;10.704;2022-07-29T15:56:53;3.13;;;1.52;;